sensor_id;sensor_type;location;lat;lon;timestamp;P1;durP1;ratioP1;P2;durP2;ratioP2
84956;SDS011;75252;45.438;-73.814;2024-02-26T00:00:02;6.22;;;2.90;;
84956;SDS011;75252;45.438;-73.814;2024-02-26T00:02:30;4.93;;;2.50;;
84956;SDS011;75252;45.438;-73.814;2024-02-26T00:04:58;6.93;;;3.42;;
84956;SDS011;75252;45.438;-73.814;2024-02-26T00:07:24;5.43;;;3.00;;
84956;SDS011;75252;45.438;-73.814;2024-02-26T00:09:50;5.10;;;2.80;;
84956;SDS011;75252;45.438;-73.814;2024-02-26T00:12:16;6.78;;;2.63;;
84956;SDS011;75252;45.438;-73.814;2024-02-26T00:14:41;4.55;;;2.75;;
84956;SDS011;75252;45.438;-73.814;2024-02-26T00:17:07;8.25;;;2.80;;
84956;SDS011;75252;45.438;-73.814;2024-02-26T00:19:35;4.25;;;3.13;;
84956;SDS011;75252;45.438;-73.814;2024-02-26T00:22:00;4.65;;;2.90;;
84956;SDS011;75252;45.438;-73.814;2024-02-26T00:24:26;4.47;;;2.53;;
84956;SDS011;75252;45.438;-73.814;2024-02-26T00:26:52;8.15;;;3.53;;
84956;SDS011;75252;45.438;-73.814;2024-02-26T00:29:19;4.95;;;2.70;;
84956;SDS011;75252;45.438;-73.814;2024-02-26T00:31:46;4.80;;;2.45;;
84956;SDS011;75252;45.438;-73.814;2024-02-26T00:34:13;4.30;;;2.58;;
84956;SDS011;75252;45.438;-73.814;2024-02-26T00:36:38;5.80;;;3.78;;
84956;SDS011;75252;45.438;-73.814;2024-02-26T00:39:04;3.60;;;2.53;;
84956;SDS011;75252;45.438;-73.814;2024-02-26T00:41:30;4.78;;;2.40;;
84956;SDS011;75252;45.438;-73.814;2024-02-26T00:43:56;3.53;;;2.35;;
84956;SDS011;75252;45.438;-73.814;2024-02-26T00:46:22;7.95;;;2.90;;
84956;SDS011;75252;45.438;-73.814;2024-02-26T00:48:48;4.38;;;2.60;;
84956;SDS011;75252;45.438;-73.814;2024-02-26T00:51:14;4.68;;;2.50;;
84956;SDS011;75252;45.438;-73.814;2024-02-26T00:53:40;3.58;;;2.28;;
84956;SDS011;75252;45.438;-73.814;2024-02-26T00:56:06;3.42;;;2.90;;
84956;SDS011;75252;45.438;-73.814;2024-02-26T00:58:32;4.40;;;2.67;;
84956;SDS011;75252;45.438;-73.814;2024-02-26T01:00:58;6.75;;;2.92;;
84956;SDS011;75252;45.438;-73.814;2024-02-26T01:03:24;5.65;;;2.80;;
84956;SDS011;75252;45.438;-73.814;2024-02-26T01:05:50;4.90;;;3.17;;
84956;SDS011;75252;45.438;-73.814;2024-02-26T01:08:16;4.40;;;2.97;;
84956;SDS011;75252;45.438;-73.814;2024-02-26T01:10:42;5.63;;;3.25;;
84956;SDS011;75252;45.438;-73.814;2024-02-26T01:13:07;5.28;;;3.05;;
84956;SDS011;75252;45.438;-73.814;2024-02-26T01:15:33;7.25;;;3.00;;
84956;SDS011;75252;45.438;-73.814;2024-02-26T01:17:59;4.50;;;2.50;;
84956;SDS011;75252;45.438;-73.814;2024-02-26T01:20:25;3.50;;;2.45;;
84956;SDS011;75252;45.438;-73.814;2024-02-26T01:22:51;6.22;;;2.55;;
84956;SDS011;75252;45.438;-73.814;2024-02-26T01:25:17;4.47;;;2.63;;
84956;SDS011;75252;45.438;-73.814;2024-02-26T01:27:43;4.72;;;2.70;;
84956;SDS011;75252;45.438;-73.814;2024-02-26T01:30:09;4.82;;;2.78;;
84956;SDS011;75252;45.438;-73.814;2024-02-26T01:32:36;5.70;;;2.80;;
84956;SDS011;75252;45.438;-73.814;2024-02-26T01:35:02;4.75;;;2.80;;
84956;SDS011;75252;45.438;-73.814;2024-02-26T01:37:36;4.40;;;2.90;;
84956;SDS011;75252;45.438;-73.814;2024-02-26T01:40:02;5.50;;;2.85;;
84956;SDS011;75252;45.438;-73.814;2024-02-26T01:42:32;5.05;;;2.72;;
84956;SDS011;75252;45.438;-73.814;2024-02-26T01:44:58;6.85;;;2.67;;
84956;SDS011;75252;45.438;-73.814;2024-02-26T01:47:24;4.45;;;2.63;;
84956;SDS011;75252;45.438;-73.814;2024-02-26T01:49:52;4.22;;;2.55;;
84956;SDS011;75252;45.438;-73.814;2024-02-26T01:52:19;6.28;;;2.63;;
84956;SDS011;75252;45.438;-73.814;2024-02-26T01:54:46;6.55;;;2.72;;
84956;SDS011;75252;45.438;-73.814;2024-02-26T01:57:13;5.97;;;2.60;;
84956;SDS011;75252;45.438;-73.814;2024-02-26T01:59:39;7.57;;;2.65;;
84956;SDS011;75252;45.438;-73.814;2024-02-26T02:02:07;5.88;;;2.50;;
84956;SDS011;75252;45.438;-73.814;2024-02-26T02:04:35;3.90;;;2.50;;
84956;SDS011;75252;45.438;-73.814;2024-02-26T02:07:02;3.58;;;2.53;;
84956;SDS011;75252;45.438;-73.814;2024-02-26T02:09:28;4.57;;;2.30;;
84956;SDS011;75252;45.438;-73.814;2024-02-26T02:11:55;4.38;;;2.38;;
84956;SDS011;75252;45.438;-73.814;2024-02-26T02:14:21;5.40;;;2.67;;
84956;SDS011;75252;45.438;-73.814;2024-02-26T02:16:47;3.72;;;2.38;;
84956;SDS011;75252;45.438;-73.814;2024-02-26T02:19:13;5.78;;;2.33;;
84956;SDS011;75252;45.438;-73.814;2024-02-26T02:21:39;2.85;;;2.20;;
84956;SDS011;75252;45.438;-73.814;2024-02-26T02:24:05;4.43;;;2.78;;
84956;SDS011;75252;45.438;-73.814;2024-02-26T02:26:31;3.53;;;2.25;;
84956;SDS011;75252;45.438;-73.814;2024-02-26T02:28:57;2.45;;;2.00;;
84956;SDS011;75252;45.438;-73.814;2024-02-26T02:31:24;7.53;;;2.95;;
84956;SDS011;75252;45.438;-73.814;2024-02-26T02:33:50;5.55;;;2.50;;
84956;SDS011;75252;45.438;-73.814;2024-02-26T02:36:16;3.70;;;2.40;;
84956;SDS011;75252;45.438;-73.814;2024-02-26T02:38:49;5.20;;;2.40;;
84956;SDS011;75252;45.438;-73.814;2024-02-26T02:41:15;3.58;;;2.35;;
84956;SDS011;75252;45.438;-73.814;2024-02-26T02:43:41;4.82;;;2.60;;
84956;SDS011;75252;45.438;-73.814;2024-02-26T02:46:07;3.72;;;2.35;;
84956;SDS011;75252;45.438;-73.814;2024-02-26T02:48:33;3.60;;;2.08;;
84956;SDS011;75252;45.438;-73.814;2024-02-26T02:50:59;3.55;;;2.28;;
84956;SDS011;75252;45.438;-73.814;2024-02-26T02:53:25;5.35;;;2.80;;
84956;SDS011;75252;45.438;-73.814;2024-02-26T02:55:50;4.07;;;2.05;;
84956;SDS011;75252;45.438;-73.814;2024-02-26T02:58:16;5.13;;;2.85;;
84956;SDS011;75252;45.438;-73.814;2024-02-26T03:00:42;3.58;;;2.50;;
84956;SDS011;75252;45.438;-73.814;2024-02-26T03:03:08;3.75;;;2.40;;
84956;SDS011;75252;45.438;-73.814;2024-02-26T03:05:34;4.30;;;2.50;;
84956;SDS011;75252;45.438;-73.814;2024-02-26T03:08:00;3.20;;;2.30;;
84956;SDS011;75252;45.438;-73.814;2024-02-26T03:10:26;3.13;;;2.50;;
84956;SDS011;75252;45.438;-73.814;2024-02-26T03:12:53;4.00;;;2.35;;
84956;SDS011;75252;45.438;-73.814;2024-02-26T03:15:19;5.10;;;2.67;;
84956;SDS011;75252;45.438;-73.814;2024-02-26T03:17:45;3.28;;;2.28;;
84956;SDS011;75252;45.438;-73.814;2024-02-26T03:20:11;5.20;;;2.40;;
84956;SDS011;75252;45.438;-73.814;2024-02-26T03:22:38;5.72;;;2.72;;
84956;SDS011;75252;45.438;-73.814;2024-02-26T03:25:05;5.75;;;2.47;;
84956;SDS011;75252;45.438;-73.814;2024-02-26T03:27:32;5.15;;;2.60;;
84956;SDS011;75252;45.438;-73.814;2024-02-26T03:29:58;3.40;;;2.30;;
84956;SDS011;75252;45.438;-73.814;2024-02-26T03:32:24;3.58;;;2.65;;
84956;SDS011;75252;45.438;-73.814;2024-02-26T03:34:50;4.15;;;2.42;;
84956;SDS011;75252;45.438;-73.814;2024-02-26T03:37:19;4.55;;;2.28;;
84956;SDS011;75252;45.438;-73.814;2024-02-26T03:39:45;4.57;;;2.50;;
84956;SDS011;75252;45.438;-73.814;2024-02-26T03:42:11;3.95;;;2.33;;
84956;SDS011;75252;45.438;-73.814;2024-02-26T03:44:37;3.60;;;2.03;;
84956;SDS011;75252;45.438;-73.814;2024-02-26T03:47:03;5.65;;;2.78;;
84956;SDS011;75252;45.438;-73.814;2024-02-26T03:49:29;4.38;;;2.47;;
84956;SDS011;75252;45.438;-73.814;2024-02-26T03:51:54;4.80;;;2.22;;
84956;SDS011;75252;45.438;-73.814;2024-02-26T03:54:21;4.18;;;2.58;;
84956;SDS011;75252;45.438;-73.814;2024-02-26T03:56:47;4.32;;;2.17;;
84956;SDS011;75252;45.438;-73.814;2024-02-26T03:59:13;3.10;;;2.28;;
84956;SDS011;75252;45.438;-73.814;2024-02-26T04:01:39;3.47;;;1.80;;
84956;SDS011;75252;45.438;-73.814;2024-02-26T04:04:10;3.42;;;1.90;;
84956;SDS011;75252;45.438;-73.814;2024-02-26T04:06:35;2.80;;;2.10;;
84956;SDS011;75252;45.438;-73.814;2024-02-26T04:09:02;2.95;;;2.03;;
84956;SDS011;75252;45.438;-73.814;2024-02-26T04:11:29;3.60;;;2.10;;
84956;SDS011;75252;45.438;-73.814;2024-02-26T04:13:55;5.25;;;2.20;;
84956;SDS011;75252;45.438;-73.814;2024-02-26T04:16:21;5.03;;;2.20;;
84956;SDS011;75252;45.438;-73.814;2024-02-26T04:18:47;3.03;;;2.20;;
84956;SDS011;75252;45.438;-73.814;2024-02-26T04:21:14;2.80;;;2.05;;
84956;SDS011;75252;45.438;-73.814;2024-02-26T04:23:40;4.15;;;2.38;;
84956;SDS011;75252;45.438;-73.814;2024-02-26T04:26:06;2.50;;;1.80;;
84956;SDS011;75252;45.438;-73.814;2024-02-26T04:28:31;5.25;;;2.10;;
84956;SDS011;75252;45.438;-73.814;2024-02-26T04:30:57;2.53;;;1.95;;
84956;SDS011;75252;45.438;-73.814;2024-02-26T04:33:23;3.95;;;2.15;;
84956;SDS011;75252;45.438;-73.814;2024-02-26T04:35:49;3.80;;;2.45;;
84956;SDS011;75252;45.438;-73.814;2024-02-26T04:38:15;4.82;;;2.15;;
84956;SDS011;75252;45.438;-73.814;2024-02-26T04:40:41;3.13;;;2.22;;
84956;SDS011;75252;45.438;-73.814;2024-02-26T04:43:06;3.90;;;2.45;;
84956;SDS011;75252;45.438;-73.814;2024-02-26T04:45:32;3.60;;;2.30;;
84956;SDS011;75252;45.438;-73.814;2024-02-26T04:47:59;2.72;;;1.90;;
84956;SDS011;75252;45.438;-73.814;2024-02-26T04:50:25;2.88;;;2.30;;
84956;SDS011;75252;45.438;-73.814;2024-02-26T04:52:51;3.10;;;2.00;;
84956;SDS011;75252;45.438;-73.814;2024-02-26T04:55:16;4.22;;;2.33;;
84956;SDS011;75252;45.438;-73.814;2024-02-26T04:57:42;4.43;;;2.40;;
84956;SDS011;75252;45.438;-73.814;2024-02-26T05:00:08;2.60;;;1.95;;
84956;SDS011;75252;45.438;-73.814;2024-02-26T05:02:35;5.55;;;2.72;;
84956;SDS011;75252;45.438;-73.814;2024-02-26T05:07:30;4.75;;;2.20;;
84956;SDS011;75252;45.438;-73.814;2024-02-26T05:09:56;2.78;;;1.75;;
84956;SDS011;75252;45.438;-73.814;2024-02-26T05:12:22;4.72;;;2.20;;
84956;SDS011;75252;45.438;-73.814;2024-02-26T05:14:48;3.85;;;2.30;;
84956;SDS011;75252;45.438;-73.814;2024-02-26T05:17:14;3.47;;;2.55;;
84956;SDS011;75252;45.438;-73.814;2024-02-26T05:19:40;4.32;;;2.45;;
84956;SDS011;75252;45.438;-73.814;2024-02-26T05:22:05;3.33;;;2.33;;
84956;SDS011;75252;45.438;-73.814;2024-02-26T05:24:32;3.22;;;2.13;;
84956;SDS011;75252;45.438;-73.814;2024-02-26T05:26:59;2.95;;;2.13;;
84956;SDS011;75252;45.438;-73.814;2024-02-26T05:29:25;4.47;;;2.50;;
84956;SDS011;75252;45.438;-73.814;2024-02-26T05:31:51;4.15;;;2.45;;
84956;SDS011;75252;45.438;-73.814;2024-02-26T05:34:19;3.15;;;2.00;;
84956;SDS011;75252;45.438;-73.814;2024-02-26T05:36:45;3.75;;;2.53;;
84956;SDS011;75252;45.438;-73.814;2024-02-26T05:39:11;4.05;;;2.33;;
84956;SDS011;75252;45.438;-73.814;2024-02-26T05:41:37;4.10;;;2.13;;
84956;SDS011;75252;45.438;-73.814;2024-02-26T05:44:03;2.83;;;2.00;;
84956;SDS011;75252;45.438;-73.814;2024-02-26T05:46:29;2.55;;;1.88;;
84956;SDS011;75252;45.438;-73.814;2024-02-26T05:48:55;3.10;;;2.08;;
84956;SDS011;75252;45.438;-73.814;2024-02-26T05:51:21;4.70;;;2.22;;
84956;SDS011;75252;45.438;-73.814;2024-02-26T05:53:49;4.30;;;2.13;;
84956;SDS011;75252;45.438;-73.814;2024-02-26T05:56:19;3.45;;;2.03;;
84956;SDS011;75252;45.438;-73.814;2024-02-26T05:58:46;5.75;;;2.17;;
84956;SDS011;75252;45.438;-73.814;2024-02-26T06:01:15;2.85;;;1.80;;
84956;SDS011;75252;45.438;-73.814;2024-02-26T06:03:44;2.40;;;1.75;;
84956;SDS011;75252;45.438;-73.814;2024-02-26T06:06:10;4.13;;;2.45;;
84956;SDS011;75252;45.438;-73.814;2024-02-26T06:08:36;3.92;;;2.10;;
84956;SDS011;75252;45.438;-73.814;2024-02-26T06:11:06;2.80;;;1.95;;
84956;SDS011;75252;45.438;-73.814;2024-02-26T06:13:33;3.55;;;2.10;;
84956;SDS011;75252;45.438;-73.814;2024-02-26T06:15:59;3.65;;;2.15;;
84956;SDS011;75252;45.438;-73.814;2024-02-26T06:18:25;4.28;;;2.10;;
84956;SDS011;75252;45.438;-73.814;2024-02-26T06:20:51;2.22;;;1.60;;
84956;SDS011;75252;45.438;-73.814;2024-02-26T06:23:17;2.55;;;1.98;;
84956;SDS011;75252;45.438;-73.814;2024-02-26T06:25:43;3.05;;;1.85;;
84956;SDS011;75252;45.438;-73.814;2024-02-26T06:28:09;3.47;;;2.20;;
84956;SDS011;75252;45.438;-73.814;2024-02-26T06:30:34;3.25;;;1.90;;
84956;SDS011;75252;45.438;-73.814;2024-02-26T06:33:01;1.90;;;1.70;;
84956;SDS011;75252;45.438;-73.814;2024-02-26T06:35:27;3.03;;;1.85;;
84956;SDS011;75252;45.438;-73.814;2024-02-26T06:37:53;3.67;;;1.83;;
84956;SDS011;75252;45.438;-73.814;2024-02-26T06:40:19;4.20;;;1.98;;
84956;SDS011;75252;45.438;-73.814;2024-02-26T06:42:45;2.88;;;1.95;;
84956;SDS011;75252;45.438;-73.814;2024-02-26T06:45:11;3.40;;;1.95;;
84956;SDS011;75252;45.438;-73.814;2024-02-26T06:47:36;2.60;;;1.88;;
84956;SDS011;75252;45.438;-73.814;2024-02-26T06:50:02;2.25;;;1.90;;
84956;SDS011;75252;45.438;-73.814;2024-02-26T06:52:28;2.97;;;2.03;;
84956;SDS011;75252;45.438;-73.814;2024-02-26T06:54:54;7.50;;;2.78;;
84956;SDS011;75252;45.438;-73.814;2024-02-26T06:57:20;3.50;;;2.13;;
84956;SDS011;75252;45.438;-73.814;2024-02-26T06:59:46;2.90;;;1.88;;
84956;SDS011;75252;45.438;-73.814;2024-02-26T07:02:12;3.28;;;1.80;;
84956;SDS011;75252;45.438;-73.814;2024-02-26T07:04:39;2.53;;;1.90;;
84956;SDS011;75252;45.438;-73.814;2024-02-26T07:07:06;2.85;;;1.70;;
84956;SDS011;75252;45.438;-73.814;2024-02-26T07:09:32;2.90;;;2.15;;
84956;SDS011;75252;45.438;-73.814;2024-02-26T07:11:58;3.47;;;1.80;;
84956;SDS011;75252;45.438;-73.814;2024-02-26T07:14:24;2.20;;;1.60;;
84956;SDS011;75252;45.438;-73.814;2024-02-26T07:16:50;4.55;;;1.92;;
84956;SDS011;75252;45.438;-73.814;2024-02-26T07:19:16;2.80;;;2.13;;
84956;SDS011;75252;45.438;-73.814;2024-02-26T07:21:42;3.30;;;1.98;;
84956;SDS011;75252;45.438;-73.814;2024-02-26T07:24:08;2.75;;;1.85;;
84956;SDS011;75252;45.438;-73.814;2024-02-26T07:26:34;3.53;;;1.90;;
84956;SDS011;75252;45.438;-73.814;2024-02-26T07:29:00;2.40;;;1.88;;
84956;SDS011;75252;45.438;-73.814;2024-02-26T07:31:26;2.15;;;1.90;;
84956;SDS011;75252;45.438;-73.814;2024-02-26T07:33:52;3.47;;;1.90;;
84956;SDS011;75252;45.438;-73.814;2024-02-26T07:36:18;1.88;;;1.67;;
84956;SDS011;75252;45.438;-73.814;2024-02-26T07:38:44;3.55;;;1.83;;
84956;SDS011;75252;45.438;-73.814;2024-02-26T07:41:10;2.38;;;1.73;;
84956;SDS011;75252;45.438;-73.814;2024-02-26T07:43:36;2.28;;;1.50;;
84956;SDS011;75252;45.438;-73.814;2024-02-26T07:46:02;2.30;;;2.10;;
84956;SDS011;75252;45.438;-73.814;2024-02-26T07:48:28;2.13;;;1.63;;
84956;SDS011;75252;45.438;-73.814;2024-02-26T07:50:54;5.00;;;2.05;;
84956;SDS011;75252;45.438;-73.814;2024-02-26T07:53:20;2.47;;;1.88;;
84956;SDS011;75252;45.438;-73.814;2024-02-26T07:55:46;3.58;;;1.95;;
84956;SDS011;75252;45.438;-73.814;2024-02-26T07:58:12;3.20;;;2.00;;
84956;SDS011;75252;45.438;-73.814;2024-02-26T08:00:38;3.08;;;2.08;;
84956;SDS011;75252;45.438;-73.814;2024-02-26T08:03:04;3.88;;;1.88;;
84956;SDS011;75252;45.438;-73.814;2024-02-26T08:05:30;2.33;;;1.77;;
84956;SDS011;75252;45.438;-73.814;2024-02-26T08:07:56;2.97;;;2.00;;
84956;SDS011;75252;45.438;-73.814;2024-02-26T08:10:22;2.50;;;2.03;;
84956;SDS011;75252;45.438;-73.814;2024-02-26T08:12:47;2.58;;;2.10;;
84956;SDS011;75252;45.438;-73.814;2024-02-26T08:15:13;3.67;;;2.15;;
84956;SDS011;75252;45.438;-73.814;2024-02-26T08:17:39;2.70;;;1.75;;
84956;SDS011;75252;45.438;-73.814;2024-02-26T08:20:05;3.03;;;1.92;;
84956;SDS011;75252;45.438;-73.814;2024-02-26T08:22:31;3.30;;;2.05;;
84956;SDS011;75252;45.438;-73.814;2024-02-26T08:24:58;3.60;;;2.17;;
84956;SDS011;75252;45.438;-73.814;2024-02-26T08:27:24;5.00;;;2.20;;
84956;SDS011;75252;45.438;-73.814;2024-02-26T08:29:50;2.00;;;1.70;;
84956;SDS011;75252;45.438;-73.814;2024-02-26T08:32:16;2.40;;;1.90;;
84956;SDS011;75252;45.438;-73.814;2024-02-26T08:34:42;3.40;;;1.90;;
84956;SDS011;75252;45.438;-73.814;2024-02-26T08:37:07;3.30;;;2.10;;
84956;SDS011;75252;45.438;-73.814;2024-02-26T08:39:33;2.80;;;1.85;;
84956;SDS011;75252;45.438;-73.814;2024-02-26T08:41:59;2.58;;;1.90;;
84956;SDS011;75252;45.438;-73.814;2024-02-26T08:44:25;3.42;;;2.08;;
84956;SDS011;75252;45.438;-73.814;2024-02-26T08:46:51;6.13;;;2.10;;
84956;SDS011;75252;45.438;-73.814;2024-02-26T08:49:17;2.35;;;1.88;;
84956;SDS011;75252;45.438;-73.814;2024-02-26T08:51:43;2.97;;;2.00;;
84956;SDS011;75252;45.438;-73.814;2024-02-26T08:54:09;2.85;;;1.92;;
84956;SDS011;75252;45.438;-73.814;2024-02-26T08:56:35;3.60;;;2.17;;
84956;SDS011;75252;45.438;-73.814;2024-02-26T08:59:01;3.47;;;2.40;;
84956;SDS011;75252;45.438;-73.814;2024-02-26T09:01:29;2.67;;;1.90;;
84956;SDS011;75252;45.438;-73.814;2024-02-26T09:03:56;4.50;;;2.33;;
84956;SDS011;75252;45.438;-73.814;2024-02-26T09:06:22;3.92;;;2.00;;
84956;SDS011;75252;45.438;-73.814;2024-02-26T09:08:48;2.50;;;1.80;;
84956;SDS011;75252;45.438;-73.814;2024-02-26T09:11:14;3.92;;;2.03;;
84956;SDS011;75252;45.438;-73.814;2024-02-26T09:13:40;3.28;;;1.77;;
84956;SDS011;75252;45.438;-73.814;2024-02-26T09:16:06;2.65;;;2.20;;
84956;SDS011;75252;45.438;-73.814;2024-02-26T09:18:32;3.10;;;2.00;;
84956;SDS011;75252;45.438;-73.814;2024-02-26T09:20:58;2.70;;;2.20;;
84956;SDS011;75252;45.438;-73.814;2024-02-26T09:23:23;2.83;;;2.30;;
84956;SDS011;75252;45.438;-73.814;2024-02-26T09:25:50;3.08;;;2.20;;
84956;SDS011;75252;45.438;-73.814;2024-02-26T09:28:15;4.45;;;2.20;;
84956;SDS011;75252;45.438;-73.814;2024-02-26T09:30:45;2.55;;;2.13;;
84956;SDS011;75252;45.438;-73.814;2024-02-26T09:33:11;2.00;;;1.80;;
84956;SDS011;75252;45.438;-73.814;2024-02-26T09:35:39;2.92;;;1.98;;
84956;SDS011;75252;45.438;-73.814;2024-02-26T09:38:04;2.72;;;1.80;;
84956;SDS011;75252;45.438;-73.814;2024-02-26T09:40:30;4.53;;;2.05;;
84956;SDS011;75252;45.438;-73.814;2024-02-26T09:42:59;2.88;;;2.05;;
84956;SDS011;75252;45.438;-73.814;2024-02-26T09:45:28;3.35;;;1.92;;
84956;SDS011;75252;45.438;-73.814;2024-02-26T09:47:58;3.30;;;1.90;;
84956;SDS011;75252;45.438;-73.814;2024-02-26T09:50:24;4.75;;;2.10;;
84956;SDS011;75252;45.438;-73.814;2024-02-26T09:52:50;3.30;;;2.35;;
84956;SDS011;75252;45.438;-73.814;2024-02-26T09:55:16;3.53;;;2.10;;
84956;SDS011;75252;45.438;-73.814;2024-02-26T09:57:45;3.10;;;2.08;;
84956;SDS011;75252;45.438;-73.814;2024-02-26T10:00:15;5.20;;;2.28;;
84956;SDS011;75252;45.438;-73.814;2024-02-26T10:02:46;5.38;;;2.05;;
84956;SDS011;75252;45.438;-73.814;2024-02-26T10:05:14;3.05;;;2.10;;
84956;SDS011;75252;45.438;-73.814;2024-02-26T10:07:45;4.15;;;1.98;;
84956;SDS011;75252;45.438;-73.814;2024-02-26T10:10:12;3.03;;;2.53;;
84956;SDS011;75252;45.438;-73.814;2024-02-26T10:12:39;3.58;;;2.38;;
84956;SDS011;75252;45.438;-73.814;2024-02-26T10:15:05;3.53;;;2.45;;
84956;SDS011;75252;45.438;-73.814;2024-02-26T10:17:31;3.67;;;2.33;;
84956;SDS011;75252;45.438;-73.814;2024-02-26T10:20:14;4.38;;;2.67;;
84956;SDS011;75252;45.438;-73.814;2024-02-26T10:22:43;4.13;;;2.42;;
84956;SDS011;75252;45.438;-73.814;2024-02-26T10:25:09;3.58;;;2.30;;
84956;SDS011;75252;45.438;-73.814;2024-02-26T10:27:35;3.20;;;2.00;;
84956;SDS011;75252;45.438;-73.814;2024-02-26T10:30:12;6.82;;;2.30;;
84956;SDS011;75252;45.438;-73.814;2024-02-26T10:32:45;4.05;;;2.03;;
84956;SDS011;75252;45.438;-73.814;2024-02-26T10:35:12;4.20;;;2.20;;
84956;SDS011;75252;45.438;-73.814;2024-02-26T10:37:40;5.28;;;2.60;;
84956;SDS011;75252;45.438;-73.814;2024-02-26T10:40:09;4.50;;;2.53;;
84956;SDS011;75252;45.438;-73.814;2024-02-26T10:42:36;3.63;;;2.30;;
84956;SDS011;75252;45.438;-73.814;2024-02-26T10:45:03;5.40;;;2.55;;
84956;SDS011;75252;45.438;-73.814;2024-02-26T10:47:30;3.83;;;2.63;;
84956;SDS011;75252;45.438;-73.814;2024-02-26T10:49:58;4.22;;;2.63;;
84956;SDS011;75252;45.438;-73.814;2024-02-26T10:52:26;3.90;;;2.35;;
84956;SDS011;75252;45.438;-73.814;2024-02-26T10:54:55;5.95;;;3.03;;
84956;SDS011;75252;45.438;-73.814;2024-02-26T10:57:25;5.28;;;2.83;;
84956;SDS011;75252;45.438;-73.814;2024-02-26T10:59:52;5.50;;;3.15;;
84956;SDS011;75252;45.438;-73.814;2024-02-26T11:02:19;7.03;;;2.65;;
84956;SDS011;75252;45.438;-73.814;2024-02-26T11:04:46;5.57;;;3.42;;
84956;SDS011;75252;45.438;-73.814;2024-02-26T11:07:12;4.20;;;2.97;;
84956;SDS011;75252;45.438;-73.814;2024-02-26T11:09:39;5.40;;;3.08;;
84956;SDS011;75252;45.438;-73.814;2024-02-26T11:12:10;4.43;;;2.97;;
84956;SDS011;75252;45.438;-73.814;2024-02-26T11:17:08;4.55;;;2.85;;
84956;SDS011;75252;45.438;-73.814;2024-02-26T11:22:03;5.38;;;2.60;;
84956;SDS011;75252;45.438;-73.814;2024-02-26T11:24:29;3.92;;;2.65;;
84956;SDS011;75252;45.438;-73.814;2024-02-26T11:26:55;4.85;;;3.05;;
84956;SDS011;75252;45.438;-73.814;2024-02-26T11:29:33;4.80;;;3.33;;
84956;SDS011;75252;45.438;-73.814;2024-02-26T11:32:12;4.63;;;2.90;;
84956;SDS011;75252;45.438;-73.814;2024-02-26T11:34:39;5.25;;;3.58;;
84956;SDS011;75252;45.438;-73.814;2024-02-26T11:37:16;7.10;;;2.90;;
84956;SDS011;75252;45.438;-73.814;2024-02-26T11:39:43;5.95;;;2.80;;
84956;SDS011;75252;45.438;-73.814;2024-02-26T11:42:13;3.83;;;2.78;;
84956;SDS011;75252;45.438;-73.814;2024-02-26T11:44:40;9.60;;;2.97;;
84956;SDS011;75252;45.438;-73.814;2024-02-26T11:47:12;3.55;;;2.67;;
84956;SDS011;75252;45.438;-73.814;2024-02-26T11:49:39;5.30;;;2.90;;
84956;SDS011;75252;45.438;-73.814;2024-02-26T11:52:06;6.30;;;3.03;;
84956;SDS011;75252;45.438;-73.814;2024-02-26T11:54:44;4.47;;;2.72;;
84956;SDS011;75252;45.438;-73.814;2024-02-26T11:57:58;4.18;;;3.13;;
84956;SDS011;75252;45.438;-73.814;2024-02-26T12:00:14;6.93;;;3.10;;
84956;SDS011;75252;45.438;-73.814;2024-02-26T12:02:50;4.20;;;3.05;;
84956;SDS011;75252;45.438;-73.814;2024-02-26T12:05:30;5.50;;;2.85;;
84956;SDS011;75252;45.438;-73.814;2024-02-26T12:08:02;4.90;;;3.25;;
84956;SDS011;75252;45.438;-73.814;2024-02-26T12:10:32;5.28;;;3.22;;
84956;SDS011;75252;45.438;-73.814;2024-02-26T12:13:07;5.28;;;2.80;;
84956;SDS011;75252;45.438;-73.814;2024-02-26T12:15:43;4.32;;;3.20;;
84956;SDS011;75252;45.438;-73.814;2024-02-26T12:18:15;3.90;;;2.97;;
84956;SDS011;75252;45.438;-73.814;2024-02-26T12:20:42;5.13;;;3.05;;
84956;SDS011;75252;45.438;-73.814;2024-02-26T12:23:18;3.88;;;2.92;;
84956;SDS011;75252;45.438;-73.814;2024-02-26T12:25:43;5.25;;;2.88;;
84956;SDS011;75252;45.438;-73.814;2024-02-26T12:28:10;3.63;;;2.55;;
84956;SDS011;75252;45.438;-73.814;2024-02-26T12:30:35;5.90;;;3.05;;
84956;SDS011;75252;45.438;-73.814;2024-02-26T12:33:02;7.03;;;3.17;;
84956;SDS011;75252;45.438;-73.814;2024-02-26T12:35:29;7.15;;;2.95;;
84956;SDS011;75252;45.438;-73.814;2024-02-26T12:37:57;4.82;;;2.92;;
84956;SDS011;75252;45.438;-73.814;2024-02-26T12:40:24;5.15;;;2.92;;
84956;SDS011;75252;45.438;-73.814;2024-02-26T12:42:50;5.35;;;3.13;;
84956;SDS011;75252;45.438;-73.814;2024-02-26T12:45:16;4.50;;;3.15;;
84956;SDS011;75252;45.438;-73.814;2024-02-26T12:47:42;6.20;;;3.45;;
84956;SDS011;75252;45.438;-73.814;2024-02-26T12:50:10;5.70;;;3.30;;
84956;SDS011;75252;45.438;-73.814;2024-02-26T12:52:41;4.55;;;3.30;;
84956;SDS011;75252;45.438;-73.814;2024-02-26T12:55:09;3.95;;;2.65;;
84956;SDS011;75252;45.438;-73.814;2024-02-26T12:57:39;5.07;;;3.33;;
84956;SDS011;75252;45.438;-73.814;2024-02-26T13:00:08;6.15;;;3.40;;
84956;SDS011;75252;45.438;-73.814;2024-02-26T13:02:39;4.75;;;3.17;;
84956;SDS011;75252;45.438;-73.814;2024-02-26T13:05:09;6.20;;;3.50;;
84956;SDS011;75252;45.438;-73.814;2024-02-26T13:07:43;5.75;;;3.65;;
84956;SDS011;75252;45.438;-73.814;2024-02-26T13:10:10;5.80;;;3.33;;
84956;SDS011;75252;45.438;-73.814;2024-02-26T13:12:45;5.32;;;3.45;;
84956;SDS011;75252;45.438;-73.814;2024-02-26T13:15:16;5.55;;;3.55;;
84956;SDS011;75252;45.438;-73.814;2024-02-26T13:17:46;8.82;;;3.67;;
84956;SDS011;75252;45.438;-73.814;2024-02-26T13:20:13;5.25;;;3.40;;
84956;SDS011;75252;45.438;-73.814;2024-02-26T13:22:49;6.75;;;3.80;;
84956;SDS011;75252;45.438;-73.814;2024-02-26T13:25:20;6.28;;;3.80;;
84956;SDS011;75252;45.438;-73.814;2024-02-26T13:27:46;6.20;;;4.13;;
84956;SDS011;75252;45.438;-73.814;2024-02-26T13:30:12;5.38;;;3.78;;
84956;SDS011;75252;45.438;-73.814;2024-02-26T13:32:39;8.15;;;4.28;;
84956;SDS011;75252;45.438;-73.814;2024-02-26T13:35:09;6.13;;;3.63;;
84956;SDS011;75252;45.438;-73.814;2024-02-26T13:37:37;8.95;;;4.00;;
84956;SDS011;75252;45.438;-73.814;2024-02-26T13:42:34;8.52;;;4.22;;
84956;SDS011;75252;45.438;-73.814;2024-02-26T13:45:01;7.57;;;4.13;;
84956;SDS011;75252;45.438;-73.814;2024-02-26T13:47:27;5.35;;;4.03;;
84956;SDS011;75252;45.438;-73.814;2024-02-26T13:49:53;8.32;;;4.35;;
84956;SDS011;75252;45.438;-73.814;2024-02-26T13:52:19;5.68;;;3.55;;
84956;SDS011;75252;45.438;-73.814;2024-02-26T13:54:46;5.03;;;3.65;;
84956;SDS011;75252;45.438;-73.814;2024-02-26T13:57:12;6.20;;;3.78;;
84956;SDS011;75252;45.438;-73.814;2024-02-26T13:59:38;6.15;;;4.00;;
84956;SDS011;75252;45.438;-73.814;2024-02-26T14:02:08;6.50;;;3.92;;
84956;SDS011;75252;45.438;-73.814;2024-02-26T14:04:34;6.22;;;3.95;;
84956;SDS011;75252;45.438;-73.814;2024-02-26T14:07:00;6.57;;;4.18;;
84956;SDS011;75252;45.438;-73.814;2024-02-26T14:09:26;6.93;;;5.22;;
84956;SDS011;75252;45.438;-73.814;2024-02-26T14:11:52;6.40;;;4.65;;
84956;SDS011;75252;45.438;-73.814;2024-02-26T14:14:17;6.78;;;4.63;;
84956;SDS011;75252;45.438;-73.814;2024-02-26T14:16:43;6.93;;;4.13;;
84956;SDS011;75252;45.438;-73.814;2024-02-26T14:19:09;7.15;;;3.72;;
84956;SDS011;75252;45.438;-73.814;2024-02-26T14:21:35;6.50;;;4.28;;
84956;SDS011;75252;45.438;-73.814;2024-02-26T14:24:01;7.20;;;4.30;;
84956;SDS011;75252;45.438;-73.814;2024-02-26T14:26:27;5.70;;;3.78;;
84956;SDS011;75252;45.438;-73.814;2024-02-26T14:28:53;8.63;;;4.03;;